• Back
  •  
  • Position of Reservoir Gates
S.No.
No. of opened gates
Position of opening (In m)
Reporting Date
Reporting Time
Discharge in Cumecs
Discharge in Cusecs
Actual date and time of Gate opening
1
2
3
4
5
6
7
8
1 2 1 25/08/2020 8:30:00 PM 171.7 6063.59
2 2 1 26/08/2020 12:00:00 AM 171.7 6063.59
3 0 0 26/08/2020 1:15:00 AM 0 0 All gates are closed
4 2 1 28/08/2020 8:00:00 AM 173.1 6113.03
5 2 1 29/08/2020 12:00:00 AM 173.1 6113.03 Actual Date of Gate Opening 28.08.2020 & Time 8.30 PM
6 0 0 29/08/2020 8:00:00 AM 0 0 ALL GATES ARE CLOSED
7 2 1 30/08/2020 8:30:00 PM 172.5 6091.84
8 2 1 31/08/2020 12:00:00 AM 172.5 6091.84 Gates Opened on Dated 30.08.2020 at 4.00 PM
9 0 0 31/08/2020 1:10:00 AM 0 0
10 2 0.5 05/09/2020 12:00:00 AM 175.4 6194.25 04/09/2020 8.00 PM
11 0 0 05/09/2020 1:40:00 PM 0 0
12 2 0.5 06/09/2020 12:00:00 AM 175.4 6194.25 05/09/2020 8.00PM
13 0 0 06/09/2020 8:00:00 AM 0 0 all gates closed.
14 1 1 09/09/2020 12:00:00 AM 174.9 6176.59
15 2 1 10/09/2020 8:00:00 PM 174.6 6166
16 1 1 13/09/2020 4:00:00 PM 86.9 3068.87
17 2 1 12/09/2020 8:00:00 PM 174.6 6166
18 1 1.5 13/09/2020 8:00:00 AM 127.9 4516.79
19 2 1.5 13/09/2020 12:00:00 PM 255.9 9037.11
20 3 2 13/09/2020 8:00:00 PM 516.3 18233.13
21 1 0.5 14/09/2020 12:00:00 PM 43 1518.54
22 1 0.5 15/09/2020 12:00:00 PM 43 1518.54
23 1 0.5 15/09/2020 8:00:00 PM 43 1518.54
24 2 1 18/09/2020 12:00:00 PM 173.6 6130.68
25 2 1 18/09/2020 12:00:00 AM 173.6 6130.68
26 2 1 22/09/2020 8:00:00 AM 173.8 6137.75
27 1 0 22/09/2020 12:00:00 PM 0 0 All gates closed at 12 PM
28 1 2 23/09/2020 12:30:00 PM 171 6038.86
29 1 2 24/09/2020 12:00:00 AM 171 6038.86
30 2 1 25/09/2020 8:00:00 PM 174.4 6158.94
31 2 1 26/09/2020 12:00:00 AM 174.4 6158.94
32 0 0 26/09/2020 8:00:00 AM 0 0
33 1 0.5 27/09/2020 12:00:00 AM 44.3 1564.45
34 2 1 28/09/2020 12:00:00 AM 174.4 6158.94
35 2 1 01/10/2020 8:00:00 PM 175.5 6197.78 Gates re-opened
36 0 0 27/09/2020 8:00:00 AM 0 0 all gates closed.
37 0 0 28/09/2020 12:00:00 PM 0 0 Gate Closed at 12 PM
38 2 1 02/10/2020 12:00:00 AM 175.5 6197.78
39 0 0 02/10/2020 8:00:00 AM 0 0 all gates closed.
40 1 1 06/10/2020 9:00:00 PM 87.76 3099.24
41 1 1 13/10/2020 8:30:00 PM 87.76 3099.24
42 2 1 09/08/2019 10:10:00 PM 83.4 2945.27
43 2 1 10/08/2019 12:25:00 AM 83.4 2945.27
44 0 0 10/08/2019 5:00:00 AM 0 0 All Gates Closed
45 3 1.16 10/08/2019 7:00:00 PM 209.5 7398.49
46 3 1.16 11/08/2019 6:53:00 AM 209.5 7398.49
47 3 1.16 11/08/2019 8:00:00 AM 209.5 7398.49
48 3 1.5 13/08/2019 9:00:00 PM 372.3 13147.77
49 3 1.5 14/08/2019 12:01:00 AM 372.3 13147.77
50 0 0 14/08/2019 12:30:00 AM 0 0 all gates are closed
51 3 1.5 17/08/2019 9:00:00 PM 368.7 13020.64
52 3 1.5 18/08/2019 12:39:00 AM 368.7 13020.64
53 0 0 18/08/2019 8:00:00 AM 0 0 all gates are closed
54 3 1.5 19/08/2019 9:15:00 PM 370.9 13098.33
55 3 1.5 22/08/2019 9:00:00 PM 369.2 13038.3
56 3 1.5 23/08/2019 12:01:00 AM 369.2 13038.3
57 0 0 23/08/2019 12:50:00 AM 0 0 all gates are closed
58 0 0 27/08/2019 12:10:00 AM 0 0 All gates are closed at 11.30 pm on dated 26.08.19
59 3 1.5 28/08/2019 9:00:00 PM 443.5 15662.2
60 3 1.5 29/08/2019 12:01:00 AM 443.5 15663.97
61 0 0 29/08/2019 6:00:00 AM 0 0
62 3 1.5 30/08/2019 9:15:00 PM 370 13066.55
63 3 1.5 31/08/2019 12:01:00 AM 370 13066.55
64 0 0 31/08/2019 12:01:00 PM 0 0
65 3 1.5 06/09/2019 9:00:00 PM 375 13243.13
66 2 1.5 16/09/2019 9:00:00 PM 255.9 9037.11
67 2 1.5 17/09/2019 12:01:00 AM 255.9 9037.11
68 2 1.5 19/09/2019 9:00:00 PM 256.6 9063.24
69 2 1.5 18/09/2019 9:00:00 PM 258.1 9117.98
70 2 1.5 20/09/2019 12:01:00 AM 256.6 9063.24
71 2 0.75 20/09/2019 9:00:00 PM 130 4590.95
72 0 0 21/09/2019 9:00:00 AM 0 0 All Gates are closed.
73 0 0 22/09/2019 10:00:00 AM 0 0 All Gates are closed.
74 2 1.5 25/09/2019 9:00:00 PM 259.2 9154
75 2 1 21/09/2019 9:00:00 PM 380 13419.7
76 2 176.3 23/09/2019 5:00:00 PM 176.3 6226.03
77 2 0.75 28/09/2019 12:01:00 AM 130 4590.95
78 4 1 23/09/2019 9:00:00 PM 352.7 12457.72
79 2 1 23/09/2019 5:00:00 PM 176.3 6228.86
80 0 0 26/09/2019 6:00:00 AM 0 0
81 1 0.5 26/09/2019 12:00:00 PM 88 3107.72
82 2 1 23/09/2019 5:00:00 PM 176.3 6226.03
83 1 0.5 28/09/2019 8:30:00 AM 44.4 1567.99
84 1 1 24/09/2019 9:00:00 PM 86.78 3064.64
85 2 0.75 26/09/2019 9:00:00 PM 130 4590.95
86 2 0.75 27/09/2019 12:01:00 AM 130 4590.95
87 1 0.5 27/09/2019 8:00:00 AM 43.35 1530.91
88 2 0.75 27/09/2019 9:00:00 PM 130 4590.95
89 2 0.75 28/09/2019 9:00:00 PM 130 4590.95
90 2 0.75 29/09/2019 12:01:00 AM 130 4590.95
91 0 0 29/09/2019 9:00:00 AM 0 0 All Gates are closed.
92 0 0 29/09/2019 9:30:00 AM 0 0 All Gates are closed.
93 0 0 30/09/2019 6:00:00 AM 0 0 all gates are closed
94 2 1 30/09/2019 12:01:00 AM 146 5155.99
95 2 0.75 01/10/2019 9:00:00 PM 140 4944.1
96 0 0 06/10/2019 10:00:00 AM 0 0 All Gates are closed.
97 1 1.5 05/10/2019 9:10:00 PM 128 4520.32
98 2 1 02/10/2019 10:00:00 PM 174 6144.81
99 2 1 04/10/2019 8:00:00 PM 174 6144.81
100 1 1.5 07/10/2019 9:00:00 PM 128.2 4527.38
101 1 1.5 06/10/2019 12:01:00 AM 128 4520.32 gate opening since 5/10/2019at9:30pm
Powered by © Water Resources Department (MP). All Rights Reserved.